createdAt,value
2023-03-21T00:01:54.578Z,4.07
2023-03-21T00:04:25.289Z,4.07
2023-03-21T00:06:54.579Z,4.07
2023-03-21T00:09:23.601Z,4.02
2023-03-21T00:11:53.257Z,3.96
2023-03-21T00:14:23.828Z,3.93
2023-03-21T00:16:53.350Z,3.91
2023-03-21T00:19:26.695Z,3.87
2023-03-21T00:22:06.933Z,3.83
2023-03-21T00:24:36.671Z,3.78
2023-03-21T00:27:34.259Z,3.71
2023-03-21T00:29:57.100Z,3.64
2023-03-21T00:32:28.787Z,3.56
2023-03-21T00:35:21.409Z,3.50
2023-03-21T00:37:49.104Z,3.49
2023-03-21T00:40:26.659Z,3.50
2023-03-21T00:42:57.898Z,3.51
2023-03-21T00:45:28.026Z,3.52
2023-03-21T00:47:56.779Z,3.51
2023-03-21T00:50:27.770Z,3.50
2023-03-21T00:52:59.374Z,3.49
2023-03-21T00:55:28.195Z,3.46
2023-03-21T00:58:02.078Z,3.41
2023-03-21T01:00:33.116Z,3.40
2023-03-21T01:03:17.554Z,3.37
2023-03-21T01:06:05.987Z,3.35
2023-03-21T01:08:54.525Z,3.36
2023-03-21T01:11:25.042Z,3.37
2023-03-21T01:13:59.606Z,3.35
2023-03-21T01:16:32.984Z,3.29
2023-03-21T01:19:04.766Z,3.25
2023-03-21T01:21:33.379Z,3.26
2023-03-21T01:24:02.206Z,3.28
2023-03-21T01:26:30.931Z,3.26
2023-03-21T01:28:59.095Z,3.17
2023-03-21T01:31:27.789Z,3.10
2023-03-21T01:33:58.898Z,3.09
2023-03-21T01:36:27.419Z,3.09
2023-03-21T01:39:04.330Z,3.06
2023-03-21T01:41:42.865Z,3.04
2023-03-21T01:44:30.963Z,3.09
2023-03-21T01:47:10.412Z,3.09
2023-03-21T01:49:46.402Z,3.06
2023-03-21T01:52:37.075Z,3.06
2023-03-21T01:55:13.624Z,3.06
2023-03-21T01:58:05.346Z,3.11
2023-03-21T02:00:56.811Z,3.18
2023-03-21T02:03:52.683Z,3.25
2023-03-21T02:06:53.588Z,3.28
2023-03-21T02:09:42.466Z,3.22
2023-03-21T02:12:16.472Z,3.19
2023-03-21T02:14:46.061Z,3.17
2023-03-21T02:17:53.868Z,3.16
2023-03-21T02:20:51.243Z,3.20
2023-03-21T02:23:48.849Z,3.24
2023-03-21T02:27:01.484Z,3.23
2023-03-21T02:30:04.727Z,3.24
2023-03-21T02:33:00.845Z,3.27
2023-03-21T02:35:54.338Z,3.28
2023-03-21T02:38:31.303Z,3.25
2023-03-21T02:41:42.454Z,3.18
2023-03-21T02:44:22.257Z,3.09
2023-03-21T02:47:08.533Z,3.04
2023-03-21T02:49:47.540Z,3.03
2023-03-21T02:52:35.482Z,3.02
2023-03-21T02:55:05.640Z,3.00
2023-03-21T02:57:44.125Z,2.99
2023-03-21T03:00:17.768Z,2.97
2023-03-21T03:02:54.512Z,2.95
2023-03-21T03:05:29.742Z,2.97
2023-03-21T03:08:24.002Z,2.98
2023-03-21T03:11:26.302Z,2.97
2023-03-21T03:14:35.829Z,2.90
2023-03-21T03:17:07.422Z,2.84
2023-03-21T03:19:50.657Z,2.86
2023-03-21T03:22:25.332Z,2.85
2023-03-21T03:25:16.330Z,2.82
2023-03-21T03:27:52.100Z,2.80
2023-03-21T03:30:23.696Z,2.81
2023-03-21T03:32:55.629Z,2.81
2023-03-21T03:35:24.716Z,2.81
2023-03-21T03:37:57.803Z,2.82
2023-03-21T03:40:27.412Z,2.82
2023-03-21T03:43:09.434Z,2.82
2023-03-21T03:45:44.649Z,2.75
2023-03-21T03:48:25.363Z,2.69
2023-03-21T03:51:03.614Z,2.69
2023-03-21T03:53:57.780Z,2.70
2023-03-21T03:56:30.208Z,2.72
2023-03-21T03:58:58.528Z,2.75
2023-03-21T04:01:41.667Z,2.76
2023-03-21T04:04:13.369Z,2.73
2023-03-21T04:06:51.672Z,2.68
2023-03-21T04:09:37.256Z,2.64
2023-03-21T04:12:13.102Z,2.61
2023-03-21T04:14:47.121Z,2.59
2023-03-21T04:17:23.019Z,2.55
2023-03-21T04:19:55.616Z,2.56
2023-03-21T04:22:27.133Z,2.58
2023-03-21T04:24:58.224Z,2.60
2023-03-21T04:27:28.365Z,2.65
2023-03-21T04:30:25.096Z,2.71
2023-03-21T04:33:05.656Z,2.78
2023-03-21T04:35:37.761Z,2.82
2023-03-21T04:38:08.220Z,2.85
2023-03-21T04:40:36.694Z,2.88
2023-03-21T04:43:05.294Z,2.91
2023-03-21T04:45:33.854Z,2.94
2023-03-21T04:48:02.400Z,2.98
2023-03-21T04:50:33.381Z,3.03
2023-03-21T04:53:02.868Z,3.12
2023-03-21T04:55:32.597Z,3.21
2023-03-21T04:58:01.487Z,3.30
2023-03-21T05:00:30.638Z,3.39
2023-03-21T05:03:00.349Z,3.50
2023-03-21T05:05:28.548Z,3.61
2023-03-21T05:07:57.225Z,3.72
2023-03-21T05:10:27.377Z,3.80
2023-03-21T05:12:55.898Z,3.90
2023-03-21T05:15:24.930Z,4.00
2023-03-21T05:17:58.789Z,4.10
2023-03-21T05:20:27.206Z,4.20
2023-03-21T05:22:55.464Z,4.29
2023-03-21T05:25:35.574Z,4.36
2023-03-21T05:28:09.293Z,4.45
2023-03-21T05:30:38.831Z,4.52
2023-03-21T05:33:09.644Z,4.57
2023-03-21T05:35:40.603Z,4.65
2023-03-21T05:38:10.754Z,4.76
2023-03-21T05:40:49.604Z,4.87
2023-03-21T05:43:19.754Z,5.00
2023-03-21T05:45:55.574Z,5.13
2023-03-21T05:48:28.381Z,5.28
2023-03-21T05:51:20.028Z,5.45
2023-03-21T05:53:48.784Z,5.58
2023-03-21T05:56:18.519Z,5.73
2023-03-21T05:59:00.414Z,5.87
2023-03-21T06:01:29.327Z,6.00
2023-03-21T06:04:06.401Z,6.15
2023-03-21T06:06:35.519Z,6.28
2023-03-21T06:09:06.919Z,6.42
2023-03-21T06:11:37.697Z,6.56
2023-03-21T06:14:32.552Z,6.73
2023-03-21T06:17:20.906Z,6.88
2023-03-21T06:19:56.205Z,7.01
2023-03-21T06:22:39.087Z,7.12
2023-03-21T06:25:08.671Z,7.21
2023-03-21T06:27:37.395Z,7.30
2023-03-21T06:30:08.680Z,7.41
2023-03-21T06:32:47.490Z,7.53
2023-03-21T06:35:18.675Z,7.64
2023-03-21T06:37:52.699Z,7.73
2023-03-21T06:40:22.286Z,7.85
2023-03-21T06:42:52.120Z,7.98
2023-03-21T06:45:20.674Z,8.12
2023-03-21T06:47:49.575Z,8.26
2023-03-21T06:50:27.224Z,8.41
2023-03-21T06:52:59.882Z,8.56
2023-03-21T06:55:32.857Z,8.68
2023-03-21T06:58:01.445Z,8.83
2023-03-21T07:00:30.854Z,8.97
2023-03-21T07:03:01.971Z,9.10
2023-03-21T07:05:35.871Z,9.24
2023-03-21T07:08:12.868Z,9.38
2023-03-21T07:10:44.330Z,9.50
2023-03-21T07:13:15.551Z,9.62
2023-03-21T07:15:48.298Z,9.75
2023-03-21T07:18:19.609Z,9.88
2023-03-21T07:21:00.782Z,10.01
2023-03-21T07:23:29.263Z,10.15
2023-03-21T07:25:57.738Z,10.28
2023-03-21T07:28:26.460Z,10.38
2023-03-21T07:30:56.822Z,10.45
2023-03-21T07:33:26.200Z,10.53
2023-03-21T07:35:55.877Z,10.64
2023-03-21T07:38:25.609Z,10.77
2023-03-21T07:40:53.868Z,10.91
2023-03-21T07:43:22.172Z,11.01
2023-03-21T07:45:59.245Z,11.13
2023-03-21T07:48:29.056Z,11.24
2023-03-21T07:50:57.433Z,11.36
2023-03-21T07:53:28.250Z,11.50
2023-03-21T07:55:57.042Z,11.62
2023-03-21T07:58:34.520Z,11.72
2023-03-21T08:01:03.262Z,11.84
2023-03-21T08:03:33.413Z,11.95
2023-03-21T08:06:04.641Z,12.07
2023-03-21T08:08:33.577Z,12.20
2023-03-21T08:11:04.127Z,12.30
2023-03-21T08:13:33.812Z,12.40
2023-03-21T08:16:02.117Z,12.50
2023-03-21T08:18:30.689Z,12.60
2023-03-21T08:20:59.541Z,12.71
2023-03-21T08:23:29.891Z,12.81
2023-03-21T08:25:58.947Z,12.88
2023-03-21T08:28:27.270Z,12.97
2023-03-21T08:30:55.750Z,13.09
2023-03-21T08:33:24.696Z,13.19
2023-03-21T08:35:55.009Z,13.27
2023-03-21T08:38:23.777Z,13.36
2023-03-21T08:40:52.138Z,13.50
2023-03-21T08:43:20.480Z,13.64
2023-03-21T08:45:49.691Z,13.77
2023-03-21T08:48:19.787Z,13.87
2023-03-21T08:50:49.265Z,13.98
2023-03-21T08:53:17.643Z,14.11
2023-03-21T08:55:46.086Z,14.24
2023-03-21T08:58:14.623Z,14.30
2023-03-21T09:00:42.851Z,14.35
2023-03-21T09:03:12.278Z,14.41
2023-03-21T09:05:41.027Z,14.50
2023-03-21T09:08:09.298Z,14.62
2023-03-21T09:10:37.666Z,14.72
2023-03-21T09:13:09.334Z,14.80
2023-03-21T09:15:40.642Z,14.86
2023-03-21T09:18:16.408Z,14.89
2023-03-21T09:20:47.465Z,14.88
2023-03-21T09:23:16.370Z,14.91
2023-03-21T09:25:47.869Z,14.99
2023-03-21T09:28:17.003Z,15.14
2023-03-21T09:30:45.900Z,15.30
2023-03-21T09:33:21.411Z,15.46
2023-03-21T09:35:52.093Z,15.60
2023-03-21T09:38:20.921Z,15.71
2023-03-21T09:41:12.490Z,15.77
2023-03-21T09:43:50.342Z,15.85
2023-03-21T09:46:43.625Z,15.93
2023-03-21T09:49:16.645Z,15.99
2023-03-21T09:51:48.930Z,16.08
2023-03-21T09:54:29.106Z,16.18
2023-03-21T09:56:59.568Z,16.29
2023-03-21T09:59:38.351Z,16.40
2023-03-21T10:02:36.913Z,16.44
2023-03-21T10:05:17.902Z,16.44
2023-03-21T10:07:52.170Z,16.41
2023-03-21T10:10:46.718Z,16.51
2023-03-21T10:13:34.307Z,16.68
2023-03-21T10:16:18.114Z,16.81
2023-03-21T10:18:47.067Z,16.96
2023-03-21T10:21:51.214Z,17.12
2023-03-21T10:24:15.948Z,17.24
2023-03-21T10:26:44.464Z,17.31
2023-03-21T10:29:14.133Z,17.38
2023-03-21T10:31:43.237Z,17.46
2023-03-21T10:34:26.790Z,17.53
2023-03-21T10:36:55.149Z,17.64
2023-03-21T10:39:33.995Z,17.72
2023-03-21T10:42:02.354Z,17.80
2023-03-21T10:44:34.590Z,17.86
2023-03-21T10:47:34.849Z,17.91
2023-03-21T10:50:09.840Z,18.05
2023-03-21T10:52:49.733Z,18.12
2023-03-21T10:55:22.689Z,18.17
2023-03-21T10:58:19.792Z,18.22
2023-03-21T11:00:48.327Z,18.31
2023-03-21T11:03:25.242Z,18.38
2023-03-21T11:05:55.351Z,18.47
2023-03-21T11:08:23.982Z,18.52
2023-03-21T11:11:09.270Z,18.60
2023-03-21T11:13:44.743Z,18.75
2023-03-21T11:16:21.661Z,18.90
2023-03-21T11:18:56.697Z,19.09
2023-03-21T11:21:29.626Z,19.25
2023-03-21T11:23:58.567Z,19.36
2023-03-21T11:26:30.373Z,19.46
2023-03-21T11:28:59.031Z,19.50
2023-03-21T11:31:38.995Z,19.56
2023-03-21T11:34:08.620Z,19.68
2023-03-21T11:36:41.089Z,19.81
2023-03-21T11:39:30.760Z,19.92
2023-03-21T11:41:59.697Z,20.04
2023-03-21T11:44:44.292Z,20.12
2023-03-21T11:47:12.726Z,20.22
2023-03-21T11:49:41.066Z,20.35
2023-03-21T11:52:33.310Z,20.49
2023-03-21T11:55:25.617Z,20.65
2023-03-21T11:58:16.056Z,20.78
2023-03-21T12:01:03.230Z,20.90
2023-03-21T12:03:54.995Z,21.03
2023-03-21T12:06:43.052Z,21.12
2023-03-21T12:09:11.502Z,21.21
2023-03-21T12:11:49.718Z,21.29
2023-03-21T12:14:42.918Z,21.34
2023-03-21T12:17:20.589Z,21.42
2023-03-21T12:19:51.829Z,21.51
2023-03-21T12:22:46.223Z,21.56
2023-03-21T12:25:17.292Z,21.55
2023-03-21T12:27:56.514Z,21.45
2023-03-21T12:30:43.981Z,21.34
2023-03-21T12:33:29.068Z,21.12
2023-03-21T12:36:17.902Z,20.92
2023-03-21T12:39:27.708Z,20.73
2023-03-21T12:42:21.181Z,20.52
2023-03-21T12:45:00.652Z,20.33
2023-03-21T12:47:32.371Z,20.17
2023-03-21T12:50:02.815Z,20.02
2023-03-21T12:52:36.432Z,19.93
2023-03-21T12:55:19.452Z,19.87
2023-03-21T12:57:57.241Z,19.85
2023-03-21T13:00:28.899Z,19.83
2023-03-21T13:03:11.181Z,19.80
2023-03-21T13:05:46.824Z,19.76
2023-03-21T13:08:21.527Z,19.72
2023-03-21T13:10:49.877Z,19.68
2023-03-21T13:13:27.396Z,19.62
2023-03-21T13:16:11.596Z,19.52
2023-03-21T13:18:54.353Z,19.36
2023-03-21T13:21:41.652Z,19.26
2023-03-21T13:24:33.294Z,19.19
2023-03-21T13:27:26.114Z,19.13
2023-03-21T13:29:55.504Z,19.10
2023-03-21T13:32:31.350Z,19.06
2023-03-21T13:35:15.657Z,19.02
2023-03-21T13:37:53.134Z,18.98
2023-03-21T13:40:43.936Z,18.94
2023-03-21T13:43:53.822Z,18.88
2023-03-21T13:46:25.552Z,18.82
2023-03-21T13:48:59.099Z,18.77
2023-03-21T13:51:37.149Z,18.72
2023-03-21T13:54:07.121Z,18.66
2023-03-21T13:56:48.331Z,18.58
2023-03-21T13:59:37.770Z,18.50
2023-03-21T14:02:13.495Z,18.43
2023-03-21T14:05:03.759Z,18.38
2023-03-21T14:07:41.235Z,18.32
2023-03-21T14:10:29.485Z,18.26
2023-03-21T14:12:58.015Z,18.19
2023-03-21T14:15:56.368Z,18.13
2023-03-21T14:18:52.180Z,18.06
2023-03-21T14:21:30.601Z,18.01
2023-03-21T14:24:06.771Z,17.97
2023-03-21T14:26:40.984Z,17.91
2023-03-21T14:29:25.125Z,17.86
2023-03-21T14:32:00.063Z,17.83
2023-03-21T14:34:32.470Z,17.81
2023-03-21T14:37:00.748Z,17.80
2023-03-21T14:39:31.058Z,17.78
2023-03-21T14:42:07.395Z,17.77
2023-03-21T14:44:56.930Z,17.74
2023-03-21T14:47:27.931Z,17.70
2023-03-21T14:49:57.126Z,17.67
2023-03-21T14:52:33.135Z,17.65
2023-03-21T14:55:02.291Z,17.60
2023-03-21T14:57:32.110Z,17.58
2023-03-21T15:00:02.169Z,17.55
2023-03-21T15:02:35.639Z,17.51
2023-03-21T15:05:33.536Z,17.48
2023-03-21T15:08:23.276Z,17.44
2023-03-21T15:11:07.134Z,17.40
2023-03-21T15:13:45.552Z,17.33
2023-03-21T15:16:17.205Z,17.25
2023-03-21T15:18:47.235Z,17.15
2023-03-21T15:21:24.442Z,17.04
2023-03-21T15:24:02.475Z,16.92
2023-03-21T15:26:35.444Z,16.80
2023-03-21T15:29:05.813Z,16.69
2023-03-21T15:31:39.084Z,16.56
2023-03-21T15:34:07.423Z,16.46
2023-03-21T15:36:40.370Z,16.36
2023-03-21T15:39:08.847Z,16.26
2023-03-21T15:41:37.890Z,16.19
2023-03-21T15:44:15.012Z,16.12
2023-03-21T15:46:49.559Z,16.05
2023-03-21T15:49:23.123Z,15.96
2023-03-21T15:52:16.235Z,15.89
2023-03-21T15:54:47.950Z,15.83
2023-03-21T15:57:33.039Z,15.76
2023-03-21T16:00:12.125Z,15.70
2023-03-21T16:02:41.298Z,15.64
2023-03-21T16:05:32.693Z,15.57
2023-03-21T16:08:07.358Z,15.50
2023-03-21T16:10:38.201Z,15.44
2023-03-21T16:13:07.614Z,15.37
2023-03-21T16:15:35.897Z,15.30
2023-03-21T16:18:04.957Z,15.20
2023-03-21T16:20:41.648Z,15.09
2023-03-21T16:23:11.736Z,15.00
2023-03-21T16:25:44.905Z,14.92
2023-03-21T16:28:16.064Z,14.86
2023-03-21T16:30:45.118Z,14.80
2023-03-21T16:33:14.718Z,14.75
2023-03-21T16:35:43.094Z,14.71
2023-03-21T16:38:12.620Z,14.62
2023-03-21T16:40:43.724Z,14.55
2023-03-21T16:43:13.385Z,14.50
2023-03-21T16:45:42.781Z,14.45
2023-03-21T16:48:16.749Z,14.37
2023-03-21T16:50:48.583Z,14.30
2023-03-21T16:53:17.576Z,14.22
2023-03-21T16:55:46.463Z,14.14
2023-03-21T16:58:22.053Z,14.09
2023-03-21T17:00:54.632Z,14.06
2023-03-21T17:03:23.122Z,14.01
2023-03-21T17:05:53.838Z,13.98
2023-03-21T17:08:22.740Z,13.94
2023-03-21T17:10:53.336Z,13.91
2023-03-21T17:13:21.615Z,13.89
2023-03-21T17:15:50.424Z,13.87
2023-03-21T17:18:23.056Z,13.84
2023-03-21T17:20:53.744Z,13.78
2023-03-21T17:23:21.985Z,13.73
2023-03-21T17:25:56.578Z,13.68
2023-03-21T17:28:26.026Z,13.65
2023-03-21T17:30:54.303Z,13.62
2023-03-21T17:33:23.151Z,13.59
2023-03-21T17:35:51.757Z,13.56
2023-03-21T17:38:23.888Z,13.54
2023-03-21T17:40:52.233Z,13.51
2023-03-21T17:43:25.562Z,13.49
2023-03-21T17:45:53.900Z,13.45
2023-03-21T17:48:22.458Z,13.41
2023-03-21T17:50:51.783Z,13.35
2023-03-21T17:53:20.135Z,13.31
2023-03-21T17:55:55.624Z,13.25
2023-03-21T17:58:24.183Z,13.22
2023-03-21T18:00:52.653Z,13.18
2023-03-21T18:03:25.522Z,13.14
2023-03-21T18:05:53.949Z,13.10
2023-03-21T18:08:29.748Z,13.05
2023-03-21T18:10:58.578Z,12.98
2023-03-21T18:13:27.815Z,12.94
2023-03-21T18:15:56.654Z,12.91
2023-03-21T18:18:27.306Z,12.88
2023-03-21T18:20:58.015Z,12.87
2023-03-21T18:23:27.034Z,12.83
2023-03-21T18:26:00.316Z,12.81
2023-03-21T18:28:39.728Z,12.81
2023-03-21T18:31:15.588Z,12.78
2023-03-21T18:33:55.154Z,12.73
2023-03-21T18:36:26.304Z,12.68
2023-03-21T18:38:56.990Z,12.63
2023-03-21T18:41:28.333Z,12.60
2023-03-21T18:44:04.547Z,12.60
2023-03-21T18:46:41.642Z,12.62
2023-03-21T18:49:56.135Z,12.63
2023-03-21T18:52:02.681Z,12.62
2023-03-21T18:54:31.502Z,12.56
2023-03-21T18:59:49.450Z,12.47
2023-03-21T19:02:18.347Z,12.40
2023-03-21T19:04:47.355Z,12.33
2023-03-21T19:07:15.766Z,12.29
2023-03-21T19:10:05.853Z,12.25
2023-03-21T19:12:34.882Z,12.22
2023-03-21T19:15:05.840Z,12.19
2023-03-21T19:20:22.883Z,12.15
2023-03-21T19:22:53.133Z,12.15
2023-03-21T19:25:22.598Z,12.13
2023-03-21T19:27:52.389Z,12.06
2023-03-21T19:30:20.776Z,12.01
2023-03-21T19:32:49.874Z,11.96
2023-03-21T19:35:18.767Z,11.90
2023-03-21T19:37:48.642Z,11.84
2023-03-21T19:40:23.046Z,11.80
2023-03-21T19:42:52.855Z,11.76
2023-03-21T19:45:21.617Z,11.74
2023-03-21T19:47:50.863Z,11.71
2023-03-21T19:53:07.691Z,11.60
2023-03-21T19:55:36.578Z,11.56
2023-03-21T19:58:07.558Z,11.52
2023-03-21T20:00:38.710Z,11.48
2023-03-21T20:03:08.973Z,11.49
2023-03-21T20:05:39.837Z,11.49
2023-03-21T20:08:10.974Z,11.43
2023-03-21T20:10:41.028Z,11.38
2023-03-21T20:13:10.673Z,11.33
2023-03-21T20:15:46.012Z,11.29
2023-03-21T20:18:24.233Z,11.27
2023-03-21T20:20:53.259Z,11.31
2023-03-21T20:23:21.722Z,11.36
2023-03-21T20:25:50.608Z,11.39
2023-03-21T20:28:25.920Z,11.41
2023-03-21T20:31:02.163Z,11.43
2023-03-21T20:33:30.894Z,11.44
2023-03-21T20:36:38.100Z,11.44
2023-03-21T20:38:54.413Z,11.48
2023-03-21T20:41:23.082Z,11.50
2023-03-21T20:44:36.395Z,11.50
2023-03-21T20:46:41.871Z,11.52
2023-03-21T20:49:23.006Z,11.53
2023-03-21T20:54:40.003Z,11.53
2023-03-21T20:57:12.271Z,11.53
2023-03-21T20:59:43.962Z,11.55
2023-03-21T21:02:15.959Z,11.55
2023-03-21T21:05:08.150Z,11.54
2023-03-21T21:07:34.519Z,11.55
2023-03-21T21:10:14.132Z,11.57
2023-03-21T21:12:46.460Z,11.59
2023-03-21T21:15:16.992Z,11.58
2023-03-21T21:18:04.614Z,11.55
2023-03-21T21:20:35.439Z,11.48
2023-03-21T21:23:10.135Z,11.42
2023-03-21T21:25:40.252Z,11.37
2023-03-21T21:28:09.804Z,11.33
2023-03-21T21:30:41.817Z,11.26
2023-03-21T21:33:10.652Z,11.22
2023-03-21T21:35:39.575Z,11.19
2023-03-21T21:38:08.633Z,11.20
2023-03-21T21:40:37.575Z,11.21
2023-03-21T21:43:09.478Z,11.21
2023-03-21T21:45:40.771Z,11.23
2023-03-21T21:48:09.252Z,11.24
2023-03-21T21:50:39.268Z,11.25
2023-03-21T21:53:07.712Z,11.24
2023-03-21T21:55:38.602Z,11.17
2023-03-21T21:58:08.590Z,11.08
2023-03-21T22:00:37.332Z,11.00
2023-03-21T22:03:06.192Z,10.98
2023-03-21T22:05:34.651Z,10.97
2023-03-21T22:08:04.248Z,10.95
2023-03-21T22:10:33.087Z,10.93
2023-03-21T22:13:01.378Z,10.91
2023-03-21T22:15:29.806Z,10.92
2023-03-21T22:17:59.029Z,10.92
2023-03-21T22:20:27.238Z,10.92
2023-03-21T22:23:02.872Z,10.91
2023-03-21T22:25:33.901Z,10.88
2023-03-21T22:28:02.464Z,10.85
2023-03-21T22:30:31.763Z,10.82
2023-03-21T22:33:09.189Z,10.79
2023-03-21T22:35:42.293Z,10.77
2023-03-21T22:38:13.360Z,10.74
2023-03-21T22:40:42.131Z,10.72
2023-03-21T22:43:13.866Z,10.69
2023-03-21T22:45:42.730Z,10.66
2023-03-21T22:48:13.821Z,10.65
2023-03-21T22:50:42.417Z,10.65
2023-03-21T22:53:10.797Z,10.65
2023-03-21T22:55:39.188Z,10.65
2023-03-21T22:58:10.924Z,10.66
2023-03-21T23:00:39.732Z,10.67
2023-03-21T23:03:08.852Z,10.67
2023-03-21T23:05:41.282Z,10.67
2023-03-21T23:08:10.104Z,10.66
2023-03-21T23:10:41.124Z,10.63
2023-03-21T23:13:09.851Z,10.60
2023-03-21T23:15:40.783Z,10.59
2023-03-21T23:18:10.869Z,10.58
2023-03-21T23:20:39.336Z,10.59
2023-03-21T23:23:07.936Z,10.58
2023-03-21T23:25:40.187Z,10.55
2023-03-21T23:28:09.815Z,10.52
2023-03-21T23:30:39.311Z,10.52
2023-03-21T23:33:08.220Z,10.52
2023-03-21T23:35:39.710Z,10.52
2023-03-21T23:38:08.240Z,10.52
2023-03-21T23:40:39.247Z,10.50
2023-03-21T23:43:08.101Z,10.49
2023-03-21T23:45:36.860Z,10.47
2023-03-21T23:48:05.385Z,10.46
2023-03-21T23:50:34.025Z,10.46
2023-03-21T23:53:05.697Z,10.47
2023-03-21T23:55:37.826Z,10.48
2023-03-21T23:58:09.334Z,10.48
